Time;durP1;ratioP1;P1;durP2;ratioP2;P2;SDS_P1;SDS_P2;PMS_P1;PMS_P2;Temp;Humidity;BMP_temperature;BMP_pressure;BME280_temperature;BME280_humidity;BME280_pressure;Samples;Min_cycle;Max_cycle;Signal;HPM_P1;HPM_P2
2023/05/30 00:00:32;;;;;;;2.70;0.90;;;14.80;56.20;;;;;;5048642;28;20418;-80
2023/05/30 00:02:57;;;;;;;2.58;0.90;;;14.80;56.50;;;;;;5078127;28;20597;-80
2023/05/30 00:05:23;;;;;;;3.70;0.70;;;14.80;56.30;;;;;;5029342;28;20970;-79
2023/05/30 00:07:49;;;;;;;2.40;0.95;;;14.70;56.20;;;;;;5037636;28;20036;-78
2023/05/30 00:10:15;;;;;;;4.68;0.82;;;14.70;56.50;;;;;;5017708;28;20029;-80
2023/05/30 00:12:41;;;;;;;2.45;0.88;;;14.70;56.40;;;;;;5059417;28;20079;-81
2023/05/30 00:15:08;;;;;;;2.43;0.87;;;14.70;56.40;;;;;;5031475;28;20047;-79
2023/05/30 00:17:35;;;;;;;2.53;0.80;;;14.60;56.50;;;;;;5045301;28;20096;-81
2023/05/30 00:20:08;;;;;;;3.22;1.00;;;14.70;56.70;;;;;;5043993;28;20020;-81
2023/05/30 00:22:38;;;;;;;1.85;0.80;;;14.60;57.00;;;;;;5028024;28;20167;-83
2023/05/30 00:25:04;;;;;;;2.53;0.90;;;14.60;56.70;;;;;;5050812;28;20237;-79
2023/05/30 00:27:30;;;;;;;3.75;0.80;;;14.50;56.60;;;;;;5052852;28;20033;-81
2023/05/30 00:29:56;;;;;;;2.70;0.77;;;14.50;56.70;;;;;;5039809;28;20115;-80
2023/05/30 00:32:22;;;;;;;2.53;0.80;;;14.50;56.60;;;;;;5065713;28;20028;-80
2023/05/30 00:34:48;;;;;;;3.73;0.87;;;14.50;56.60;;;;;;5045567;28;20044;-80
2023/05/30 00:37:14;;;;;;;2.60;1.00;;;14.50;56.80;;;;;;5031507;28;20040;-80
2023/05/30 00:39:43;;;;;;;2.17;0.80;;;14.40;56.70;;;;;;5047653;28;20036;-80
2023/05/30 00:42:10;;;;;;;4.55;0.93;;;14.40;57.00;;;;;;5048500;28;20023;-79
2023/05/30 00:44:36;;;;;;;3.42;0.90;;;14.40;56.80;;;;;;5017306;28;20120;-80
2023/05/30 00:47:02;;;;;;;3.63;0.93;;;14.40;57.00;;;;;;5068799;28;20059;-79
2023/05/30 00:49:28;;;;;;;3.87;1.00;;;14.30;57.00;;;;;;5079181;28;20043;-79
2023/05/30 00:51:55;;;;;;;3.72;1.05;;;14.30;57.30;;;;;;5030150;28;20255;-79
2023/05/30 00:54:22;;;;;;;4.07;0.85;;;14.20;57.20;;;;;;5047020;28;20029;-80
2023/05/30 00:56:48;;;;;;;3.35;0.90;;;14.20;57.30;;;;;;5044831;28;20079;-79
2023/05/30 00:59:15;;;;;;;3.53;0.80;;;14.20;57.60;;;;;;5023421;28;20107;-79
2023/05/30 01:01:43;;;;;;;3.28;0.77;;;14.20;57.70;;;;;;5058290;28;20025;-81
2023/05/30 01:04:10;;;;;;;3.90;0.73;;;14.10;57.90;;;;;;5084611;27;20090;-79
2023/05/30 01:06:37;;;;;;;3.70;0.90;;;14.10;57.80;;;;;;5043930;28;20221;-80
2023/05/30 01:09:04;;;;;;;3.97;0.90;;;14.00;58.00;;;;;;5053974;28;20578;-78
2023/05/30 01:12:01;;;;;;;3.43;0.77;;;14.00;58.70;;;;;;5065773;28;20111;-80
2023/05/30 01:14:54;;;;;;;2.47;0.85;;;13.90;58.90;;;;;;5082440;27;20029;-79
2023/05/30 01:17:55;;;;;;;4.05;0.77;;;13.90;58.50;;;;;;5044955;28;20029;-80
2023/05/30 01:20:24;;;;;;;3.42;0.73;;;13.90;59.00;;;;;;5052003;28;20035;-79
2023/05/30 01:22:57;;;;;;;2.50;0.90;;;13.90;58.10;;;;;;5032502;28;20474;-80
2023/05/30 01:25:53;;;;;;;4.10;0.70;;;13.80;58.70;;;;;;5046442;28;20050;-79
2023/05/30 01:28:21;;;;;;;2.35;0.80;;;13.80;58.30;;;;;;5054975;28;20024;-78
2023/05/30 01:30:51;;;;;;;5.30;1.17;;;13.80;58.40;;;;;;5026600;28;20044;-80
2023/05/30 01:33:21;;;;;;;3.67;1.00;;;13.70;58.60;;;;;;5046436;28;20025;-80
2023/05/30 01:35:47;;;;;;;2.95;0.90;;;13.70;58.80;;;;;;5044707;28;20162;-80
2023/05/30 01:38:14;;;;;;;3.43;0.90;;;13.70;58.80;;;;;;5064422;27;20074;-80
2023/05/30 01:40:43;;;;;;;4.18;1.00;;;13.70;58.90;;;;;;5049359;28;20052;-81
2023/05/30 01:43:54;;;;;;;2.85;0.77;;;13.60;59.30;;;;;;5046453;28;20095;-80
2023/05/30 01:46:33;;;;;;;3.70;0.80;;;13.60;60.10;;;;;;5022169;28;20379;-79
2023/05/30 01:49:22;;;;;;;2.97;0.77;;;13.60;60.10;;;;;;5025965;28;20828;-79
2023/05/30 01:51:54;;;;;;;2.00;0.67;;;13.50;60.00;;;;;;5032761;28;20024;-80
2023/05/30 01:54:21;;;;;;;2.65;0.90;;;13.50;59.40;;;;;;5012398;28;20071;-78
2023/05/30 01:57:03;;;;;;;2.25;0.70;;;13.40;59.50;;;;;;5041584;28;20632;-81
2023/05/30 01:59:30;;;;;;;3.15;0.80;;;13.40;59.80;;;;;;5032372;28;20574;-82
2023/05/30 02:01:56;;;;;;;3.65;0.82;;;13.30;59.50;;;;;;5008808;28;20028;-79
2023/05/30 02:04:24;;;;;;;4.20;0.77;;;13.30;59.80;;;;;;5074965;28;20492;-80
2023/05/30 02:06:50;;;;;;;1.83;0.70;;;13.30;60.00;;;;;;5046833;28;20672;-80
2023/05/30 02:09:16;;;;;;;2.55;0.77;;;13.30;59.90;;;;;;5028364;28;20119;-81
2023/05/30 02:11:42;;;;;;;3.42;0.73;;;13.30;59.80;;;;;;5042885;28;20331;-80
2023/05/30 02:14:08;;;;;;;3.37;0.93;;;13.20;59.80;;;;;;5044746;28;20072;-77
2023/05/30 02:16:34;;;;;;;2.42;0.70;;;13.20;60.20;;;;;;5039540;28;20102;-81
2023/05/30 02:19:00;;;;;;;4.50;1.10;;;13.20;60.40;;;;;;5045872;28;20029;-80
2023/05/30 02:21:26;;;;;;;4.57;0.90;;;13.20;60.50;;;;;;5061773;28;20041;-81
2023/05/30 02:23:53;;;;;;;3.15;1.00;;;13.10;60.40;;;;;;5039760;28;24200;-82
2023/05/30 02:26:19;;;;;;;3.03;0.90;;;13.10;60.70;;;;;;5065305;28;20071;-80
2023/05/30 02:28:45;;;;;;;3.60;0.93;;;13.10;60.90;;;;;;5038398;28;20153;-81
2023/05/30 02:31:11;;;;;;;3.45;0.90;;;13.00;61.00;;;;;;5064642;28;20068;-81
2023/05/30 02:33:37;;;;;;;3.38;0.90;;;13.00;61.10;;;;;;4999591;28;20012;-82
2023/05/30 02:36:03;;;;;;;2.83;0.73;;;13.00;61.30;;;;;;5075180;27;20324;-78
2023/05/30 02:38:29;;;;;;;2.28;0.90;;;13.00;61.30;;;;;;5048339;28;20450;-80
2023/05/30 02:40:54;;;;;;;4.82;0.85;;;12.90;61.20;;;;;;5030966;28;20732;-77
2023/05/30 02:43:20;;;;;;;2.47;0.80;;;12.90;61.40;;;;;;5051277;28;20528;-80
2023/05/30 02:45:46;;;;;;;3.33;0.90;;;12.90;61.70;;;;;;5039282;28;20490;-82
2023/05/30 02:48:12;;;;;;;3.00;1.00;;;12.90;61.70;;;;;;5044389;28;20601;-80
2023/05/30 02:50:38;;;;;;;2.70;0.75;;;12.80;61.70;;;;;;5042670;28;20486;-81
2023/05/30 02:53:04;;;;;;;3.47;0.70;;;12.80;61.80;;;;;;5049649;28;20708;-82
2023/05/30 02:55:30;;;;;;;4.32;1.00;;;12.80;62.10;;;;;;5030353;28;20037;-80
2023/05/30 02:57:56;;;;;;;3.00;0.80;;;12.70;61.90;;;;;;5058237;28;20433;-78
2023/05/30 03:00:22;;;;;;;3.15;1.00;;;12.70;61.90;;;;;;5043296;28;20467;-79
2023/05/30 03:02:48;;;;;;;4.30;1.10;;;12.70;62.20;;;;;;5019420;28;20047;-82
2023/05/30 03:05:14;;;;;;;3.80;0.88;;;12.70;62.30;;;;;;5057989;28;20116;-79
2023/05/30 03:07:39;;;;;;;1.90;0.75;;;12.70;62.50;;;;;;5052276;28;20067;-82
2023/05/30 03:10:06;;;;;;;3.27;0.80;;;12.70;62.50;;;;;;5031534;28;20153;-79
2023/05/30 03:12:31;;;;;;;3.88;1.00;;;12.70;62.40;;;;;;5030202;28;20045;-81
2023/05/30 03:14:57;;;;;;;4.10;1.00;;;12.60;62.40;;;;;;5043243;28;20402;-80
2023/05/30 03:17:24;;;;;;;3.73;0.80;;;12.60;62.70;;;;;;5052818;28;20037;-80
2023/05/30 03:19:50;;;;;;;2.63;1.20;;;12.60;62.70;;;;;;5009220;28;20590;-80
2023/05/30 03:22:16;;;;;;;3.20;0.77;;;12.60;62.80;;;;;;5054308;28;20033;-79
2023/05/30 03:24:42;;;;;;;3.75;1.10;;;12.60;63.00;;;;;;5046524;28;20020;-81
2023/05/30 03:27:08;;;;;;;3.73;1.07;;;12.60;63.00;;;;;;5028368;28;20145;-79
2023/05/30 03:29:34;;;;;;;2.88;0.90;;;12.50;62.90;;;;;;5032644;28;20039;-81
2023/05/30 03:32:00;;;;;;;3.35;1.13;;;12.50;63.10;;;;;;5039114;28;20029;-79
2023/05/30 03:34:27;;;;;;;2.80;0.80;;;12.50;63.50;;;;;;5024877;28;20193;-80
2023/05/30 03:36:53;;;;;;;2.90;0.90;;;12.50;63.40;;;;;;5036832;28;20020;-79
2023/05/30 03:39:19;;;;;;;2.47;0.85;;;12.40;63.40;;;;;;5051414;28;20044;-79
2023/05/30 03:41:45;;;;;;;3.35;0.80;;;12.40;63.60;;;;;;5042098;28;20102;-81
2023/05/30 03:44:11;;;;;;;5.47;1.30;;;12.40;63.60;;;;;;5028933;28;20028;-79
2023/05/30 03:46:37;;;;;;;3.10;0.90;;;12.40;63.60;;;;;;5040880;28;20420;-80
2023/05/30 03:49:03;;;;;;;3.13;0.90;;;12.40;63.70;;;;;;5021064;28;20738;-78
2023/05/30 03:51:29;;;;;;;3.37;0.90;;;12.40;64.00;;;;;;5040540;28;20547;-80
2023/05/30 03:53:55;;;;;;;3.20;0.90;;;12.30;63.90;;;;;;5046997;28;20510;-78
2023/05/30 03:56:21;;;;;;;2.95;0.90;;;12.30;64.10;;;;;;5046171;28;20682;-80
2023/05/30 03:58:47;;;;;;;2.47;0.90;;;12.30;64.00;;;;;;5044793;28;20032;-82
2023/05/30 04:01:13;;;;;;;2.63;0.83;;;12.30;63.90;;;;;;5045900;28;20031;-80
2023/05/30 04:03:39;;;;;;;3.15;0.93;;;12.30;64.20;;;;;;5025711;28;20426;-82
2023/05/30 04:06:05;;;;;;;4.07;1.17;;;12.30;64.00;;;;;;5011400;28;20946;-77
2023/05/30 04:08:31;;;;;;;4.68;1.30;;;12.30;64.00;;;;;;5045176;28;20298;-81
2023/05/30 04:10:57;;;;;;;4.13;1.00;;;12.30;64.20;;;;;;5078132;28;20100;-80
2023/05/30 04:13:23;;;;;;;3.05;0.88;;;12.30;64.20;;;;;;5021698;28;20773;-79
2023/05/30 04:15:49;;;;;;;2.37;0.93;;;12.30;64.50;;;;;;5031908;28;20074;-81
2023/05/30 04:18:15;;;;;;;3.75;0.98;;;12.20;64.70;;;;;;5034614;28;20029;-79
2023/05/30 04:20:41;;;;;;;3.03;1.02;;;12.20;64.70;;;;;;5009883;28;20028;-81
2023/05/30 04:23:06;;;;;;;3.90;1.30;;;12.20;64.70;;;;;;5039569;28;20620;-80
2023/05/30 04:25:33;;;;;;;3.38;1.00;;;12.30;64.70;;;;;;5076992;28;20063;-80
2023/05/30 04:27:59;;;;;;;2.73;1.07;;;12.30;64.90;;;;;;5044126;28;20029;-79
2023/05/30 04:30:26;;;;;;;3.10;1.13;;;12.30;65.20;;;;;;5030465;28;20086;-80
2023/05/30 04:32:52;;;;;;;3.47;1.02;;;12.30;65.10;;;;;;5020515;28;20017;-82
2023/05/30 04:35:18;;;;;;;4.55;1.00;;;12.30;65.30;;;;;;5021471;28;20118;-77
2023/05/30 04:37:44;;;;;;;4.70;1.20;;;12.30;65.10;;;;;;5042148;28;20075;-82
2023/05/30 04:40:13;;;;;;;3.22;1.10;;;12.30;65.40;;;;;;5081671;27;20219;-80
2023/05/30 04:42:43;;;;;;;5.05;1.67;;;12.30;65.70;;;;;;5050801;28;20027;-81
2023/05/30 04:45:10;;;;;;;4.30;1.20;;;12.40;66.30;;;;;;5032721;28;20242;-78
2023/05/30 04:47:38;;;;;;;4.57;1.20;;;12.40;66.00;;;;;;5080002;28;20032;-81
2023/05/30 04:50:05;;;;;;;5.47;1.58;;;12.40;66.00;;;;;;5002084;28;20451;-81
2023/05/30 04:52:30;;;;;;;4.88;1.30;;;12.40;66.00;;;;;;5050538;28;20071;-79
2023/05/30 04:54:56;;;;;;;3.47;1.07;;;12.50;66.20;;;;;;5040914;28;20329;-81
2023/05/30 04:57:22;;;;;;;4.40;1.15;;;12.50;66.40;;;;;;5049032;28;20033;-79
2023/05/30 04:59:48;;;;;;;3.10;1.20;;;12.50;66.30;;;;;;5033790;28;20355;-80
2023/05/30 05:02:14;;;;;;;3.87;1.10;;;12.60;66.00;;;;;;5045767;27;20388;-79
2023/05/30 05:04:40;;;;;;;3.58;1.00;;;12.60;66.30;;;;;;5037984;28;20567;-80
2023/05/30 05:07:06;;;;;;;3.95;1.27;;;12.70;66.30;;;;;;4995005;28;20025;-79
2023/05/30 05:09:31;;;;;;;2.97;1.37;;;12.70;66.30;;;;;;5031461;28;20025;-81
2023/05/30 05:11:57;;;;;;;6.93;1.60;;;12.80;66.80;;;;;;5056170;28;20468;-81
2023/05/30 05:14:23;;;;;;;6.03;1.83;;;12.80;66.90;;;;;;5046951;28;20017;-80
2023/05/30 05:16:49;;;;;;;5.20;1.48;;;12.80;66.90;;;;;;5042947;28;20033;-81
2023/05/30 05:19:15;;;;;;;2.63;1.17;;;12.80;67.00;;;;;;5040003;28;20431;-80
2023/05/30 05:21:41;;;;;;;4.32;1.20;;;12.80;67.00;;;;;;5005667;28;20508;-82
2023/05/30 05:24:10;;;;;;;4.60;1.20;;;12.90;67.00;;;;;;5022309;28;20033;-80
2023/05/30 05:26:36;;;;;;;4.35;1.40;;;12.90;67.40;;;;;;5044746;28;20033;-80
2023/05/30 05:29:01;;;;;;;3.00;1.30;;;13.00;67.10;;;;;;5053423;28;20666;-80
2023/05/30 05:31:27;;;;;;;4.70;1.52;;;13.00;67.10;;;;;;5025442;28;20173;-85
2023/05/30 05:33:53;;;;;;;4.38;1.50;;;13.00;67.40;;;;;;5048537;28;20028;-83
2023/05/30 05:36:20;;;;;;;5.90;1.87;;;13.10;67.40;;;;;;5028760;28;20086;-82
2023/05/30 05:38:46;;;;;;;5.32;1.50;;;13.10;67.60;;;;;;5018445;28;20125;-81
2023/05/30 05:41:12;;;;;;;4.28;1.60;;;13.20;67.50;;;;;;5013646;28;20031;-80
2023/05/30 05:43:38;;;;;;;5.50;1.90;;;13.20;67.50;;;;;;5047627;28;20391;-83
2023/05/30 05:46:03;;;;;;;6.00;1.80;;;13.20;67.60;;;;;;5039106;28;20271;-81
2023/05/30 05:48:29;;;;;;;5.40;1.58;;;13.30;67.70;;;;;;5031428;28;20028;-82
2023/05/30 05:50:55;;;;;;;4.97;1.37;;;13.30;67.60;;;;;;5040500;28;20374;-81
2023/05/30 05:53:21;;;;;;;4.88;1.40;;;13.30;67.50;;;;;;5006524;28;20028;-80
2023/05/30 05:55:47;;;;;;;4.53;1.63;;;13.40;67.40;;;;;;5031854;28;20482;-82
2023/05/30 05:58:13;;;;;;;5.05;1.60;;;13.40;67.50;;;;;;5049893;28;20028;-79
2023/05/30 06:00:39;;;;;;;4.53;1.70;;;13.50;67.70;;;;;;5051053;28;20097;-81
2023/05/30 06:03:05;;;;;;;3.90;1.50;;;13.50;67.70;;;;;;5021117;28;20405;-80
2023/05/30 06:05:31;;;;;;;5.47;1.45;;;13.50;67.70;;;;;;5040077;28;20433;-81
2023/05/30 06:07:58;;;;;;;4.53;1.33;;;13.70;67.80;;;;;;5021141;28;20498;-81
2023/05/30 06:10:27;;;;;;;5.88;1.55;;;13.80;67.70;;;;;;5035744;28;20645;-80
2023/05/30 06:12:53;;;;;;;4.15;1.48;;;13.90;67.80;;;;;;5055812;28;20112;-83
2023/05/30 06:15:19;;;;;;;4.73;1.53;;;13.90;67.60;;;;;;5048893;28;20703;-82
2023/05/30 06:17:45;;;;;;;4.05;1.27;;;14.00;67.60;;;;;;5068071;27;20123;-82
2023/05/30 06:20:11;;;;;;;3.85;1.50;;;14.00;67.60;;;;;;5021531;28;20488;-79
2023/05/30 06:22:37;;;;;;;5.95;1.95;;;14.20;67.40;;;;;;5023370;28;20623;-84
2023/05/30 06:25:04;;;;;;;5.40;1.67;;;14.20;67.30;;;;;;5030133;28;20024;-81
2023/05/30 06:27:30;;;;;;;3.75;1.48;;;14.30;67.30;;;;;;5064685;27;20674;-81
2023/05/30 06:29:56;;;;;;;6.88;1.77;;;14.30;67.20;;;;;;5046489;28;20024;-79
2023/05/30 06:32:21;;;;;;;5.53;1.57;;;14.40;67.40;;;;;;5030320;28;20690;-83
2023/05/30 06:34:47;;;;;;;5.43;1.85;;;14.40;67.20;;;;;;5028696;28;20054;-82
2023/05/30 06:37:14;;;;;;;3.78;1.55;;;14.50;67.20;;;;;;5062113;28;20074;-83
2023/05/30 06:39:40;;;;;;;4.97;1.77;;;14.50;67.10;;;;;;5021921;28;20101;-84
2023/05/30 06:42:08;;;;;;;6.15;1.90;;;14.60;67.10;;;;;;5042743;27;20029;-81
2023/05/30 06:44:34;;;;;;;3.90;1.55;;;14.60;67.10;;;;;;5048423;28;20035;-83
2023/05/30 06:47:00;;;;;;;4.07;1.50;;;14.70;67.00;;;;;;5048274;28;20060;-79
2023/05/30 06:49:26;;;;;;;6.67;1.80;;;14.70;67.10;;;;;;5011275;28;20462;-82
2023/05/30 06:51:52;;;;;;;4.78;1.73;;;14.70;66.90;;;;;;5032832;28;20232;-82
2023/05/30 06:54:17;;;;;;;5.20;1.77;;;14.80;66.80;;;;;;5015579;28;20040;-83
2023/05/30 06:56:43;;;;;;;5.80;1.77;;;14.90;66.90;;;;;;5004825;28;20433;-80
2023/05/30 06:59:09;;;;;;;4.05;1.75;;;14.90;67.00;;;;;;5041400;28;20639;-83
2023/05/30 07:01:35;;;;;;;4.93;1.75;;;15.00;66.80;;;;;;5059684;28;20162;-86
2023/05/30 07:04:01;;;;;;;5.03;1.57;;;15.00;66.70;;;;;;5029361;28;22563;-82
2023/05/30 07:06:27;;;;;;;5.00;1.75;;;15.10;66.60;;;;;;5028371;28;20040;-80
2023/05/30 07:08:53;;;;;;;3.90;1.57;;;15.10;66.60;;;;;;5040356;28;20056;-79
2023/05/30 07:11:18;;;;;;;3.72;1.65;;;15.10;66.50;;;;;;5035776;28;20104;-82
2023/05/30 07:13:44;;;;;;;5.73;2.00;;;15.20;66.50;;;;;;4999352;28;21349;-82
2023/05/30 07:16:10;;;;;;;5.85;1.85;;;15.20;66.30;;;;;;5047127;28;20024;-80
2023/05/30 07:18:36;;;;;;;4.60;1.70;;;15.30;66.30;;;;;;5040245;28;20246;-82
2023/05/30 07:21:02;;;;;;;4.70;1.63;;;15.30;66.30;;;;;;5014800;28;20031;-81
2023/05/30 07:23:28;;;;;;;3.28;1.70;;;15.40;66.40;;;;;;5044669;28;20032;-78
2023/05/30 07:25:54;;;;;;;5.75;1.90;;;15.40;66.50;;;;;;5022593;28;20036;-80
2023/05/30 07:28:20;;;;;;;4.43;1.80;;;15.60;66.60;;;;;;5020527;28;20028;-80
2023/05/30 07:30:46;;;;;;;4.38;1.70;;;15.60;66.40;;;;;;5037770;28;21041;-82
2023/05/30 07:33:12;;;;;;;4.45;1.77;;;15.70;66.30;;;;;;5042661;28;20514;-78
2023/05/30 07:35:38;;;;;;;5.27;1.80;;;15.80;66.10;;;;;;5011760;28;20036;-82
2023/05/30 07:38:04;;;;;;;3.03;1.70;;;15.90;66.10;;;;;;5029553;28;20374;-82
2023/05/30 07:40:30;;;;;;;3.90;1.80;;;15.90;66.10;;;;;;5042626;28;20302;-79
2023/05/30 07:42:56;;;;;;;5.03;1.98;;;16.00;66.30;;;;;;5032899;27;20112;-82
2023/05/30 07:45:21;;;;;;;5.90;2.03;;;16.10;66.10;;;;;;5034620;28;20115;-81
2023/05/30 07:47:47;;;;;;;4.28;1.65;;;16.20;66.00;;;;;;5036344;28;21313;-82
2023/05/30 07:50:13;;;;;;;4.67;1.80;;;16.30;65.70;;;;;;5033488;28;20019;-80
2023/05/30 07:52:39;;;;;;;4.93;1.70;;;16.40;65.50;;;;;;5061381;27;20040;-82
2023/05/30 07:55:05;;;;;;;6.38;1.98;;;16.50;65.60;;;;;;5047048;28;20443;-79
2023/05/30 07:57:31;;;;;;;4.53;1.80;;;16.70;66.20;;;;;;5013637;28;20705;-83
2023/05/30 07:59:58;;;;;;;4.13;2.00;;;16.80;66.70;;;;;;5031631;28;20036;-81
2023/05/30 08:02:25;;;;;;;6.15;2.08;;;17.00;67.20;;;;;;5037071;28;20417;-80
2023/05/30 08:04:55;;;;;;;4.90;2.10;;;17.30;67.40;;;;;;5039069;28;20550;-84
2023/05/30 08:07:21;;;;;;;4.32;2.10;;;17.70;67.60;;;;;;5021573;28;20402;-79
2023/05/30 08:09:47;;;;;;;4.77;1.93;;;18.10;68.50;;;;;;5040617;28;20036;-81
2023/05/30 08:12:18;;;;;;;5.25;1.80;;;18.50;68.40;;;;;;5047326;28;20410;-79
2023/05/30 08:14:45;;;;;;;4.10;1.60;;;19.00;67.30;;;;;;5044804;28;20421;-82
2023/05/30 08:17:16;;;;;;;4.63;2.08;;;19.50;67.50;;;;;;5037066;28;20591;-83
2023/05/30 08:19:45;;;;;;;3.20;1.83;;;19.90;65.90;;;;;;5038392;28;20052;-81
2023/05/30 08:22:10;;;;;;;5.50;1.98;;;20.30;65.10;;;;;;5031359;28;20147;-79
2023/05/30 08:24:38;;;;;;;4.35;2.08;;;20.70;64.90;;;;;;5023733;28;20234;-82
2023/05/30 08:27:04;;;;;;;4.20;2.10;;;21.00;64.50;;;;;;5048993;28;20020;-82
2023/05/30 08:29:32;;;;;;;3.37;1.90;;;21.40;64.10;;;;;;5016118;28;26293;-81
2023/05/30 08:31:57;;;;;;;4.32;1.90;;;21.70;63.50;;;;;;5031249;28;20013;-81
2023/05/30 08:34:24;;;;;;;3.95;1.85;;;22.00;63.30;;;;;;5014918;28;20032;-80
2023/05/30 08:36:55;;;;;;;3.72;1.75;;;22.30;62.50;;;;;;5037359;28;20025;-81
2023/05/30 08:39:22;;;;;;;4.40;2.00;;;22.60;61.50;;;;;;5027700;28;20101;-81
2023/05/30 08:41:48;;;;;;;3.22;1.70;;;22.90;61.10;;;;;;5080345;28;20033;-82
2023/05/30 08:44:14;;;;;;;4.22;2.08;;;23.10;60.60;;;;;;5043107;28;20085;-80
2023/05/30 08:46:43;;;;;;;4.63;2.13;;;23.30;59.20;;;;;;5024300;28;20020;-85
2023/05/30 08:49:18;;;;;;;4.63;1.90;;;23.40;58.70;;;;;;5066256;28;20028;-81
2023/05/30 08:51:43;;;;;;;3.90;2.05;;;23.60;57.50;;;;;;5026658;28;20115;-81
2023/05/30 08:54:23;;;;;;;3.35;1.85;;;23.70;57.40;;;;;;5047250;28;20100;-80
2023/05/30 08:57:04;;;;;;;3.10;1.80;;;23.80;56.30;;;;;;5039477;28;20374;-82
2023/05/30 08:59:31;;;;;;;3.33;1.92;;;23.90;55.50;;;;;;5045961;28;20028;-80
2023/05/30 09:01:58;;;;;;;3.55;2.15;;;24.00;56.70;;;;;;5016013;28;20072;-80
2023/05/30 09:04:25;;;;;;;3.97;2.00;;;24.20;56.00;;;;;;5029992;28;20518;-81
2023/05/30 09:06:52;;;;;;;4.05;2.10;;;24.30;55.50;;;;;;5059270;28;20054;-83
2023/05/30 09:09:21;;;;;;;3.80;1.80;;;24.40;55.80;;;;;;5051345;28;20044;-80
2023/05/30 09:11:47;;;;;;;3.78;2.20;;;24.50;56.00;;;;;;5043464;28;20044;-81
2023/05/30 09:14:13;;;;;;;4.40;2.20;;;24.70;54.80;;;;;;5048516;28;20508;-82
2023/05/30 09:16:39;;;;;;;4.43;1.97;;;24.80;54.60;;;;;;5028514;28;20138;-83
2023/05/30 09:19:06;;;;;;;2.67;1.67;;;24.90;54.70;;;;;;5077775;28;20285;-83
2023/05/30 09:21:32;;;;;;;5.25;2.42;;;25.00;55.00;;;;;;5036415;28;20082;-83
2023/05/30 09:24:07;;;;;;;3.60;2.15;;;25.20;54.70;;;;;;5040277;28;20099;-81
2023/05/30 09:26:33;;;;;;;3.55;2.20;;;25.40;54.80;;;;;;5027035;28;20495;-80
2023/05/30 09:29:11;;;;;;;4.40;2.10;;;25.50;53.60;;;;;;5071110;28;20066;-82
2023/05/30 09:31:37;;;;;;;4.10;2.30;;;25.60;52.50;;;;;;5017974;28;20626;-82
2023/05/30 09:34:05;;;;;;;3.03;2.03;;;25.60;52.70;;;;;;5051255;28;20028;-84
2023/05/30 09:36:34;;;;;;;3.40;1.98;;;25.70;52.90;;;;;;5031579;28;20402;-82
2023/05/30 09:39:02;;;;;;;5.10;2.00;;;25.80;53.00;;;;;;5017221;28;20673;-80
2023/05/30 09:41:28;;;;;;;2.95;1.70;;;25.90;52.10;;;;;;5042451;28;20492;-83
2023/05/30 09:43:55;;;;;;;3.47;2.20;;;26.00;52.50;;;;;;5055581;28;20378;-81
2023/05/30 09:46:23;;;;;;;5.60;2.42;;;26.10;52.20;;;;;;5054126;28;20017;-82
2023/05/30 09:48:50;;;;;;;3.58;2.10;;;26.20;50.90;;;;;;5052107;27;20754;-82
2023/05/30 09:51:17;;;;;;;4.00;2.43;;;26.20;50.80;;;;;;5035637;28;20055;-81
2023/05/30 09:53:55;;;;;;;6.00;2.50;;;26.30;50.30;;;;;;5046923;28;20031;-84
2023/05/30 09:56:35;;;;;;;6.78;2.30;;;26.40;49.80;;;;;;5017812;28;20020;-82
2023/05/30 09:59:13;;;;;;;5.93;2.58;;;26.40;49.60;;;;;;5063805;28;20566;-82
2023/05/30 10:01:46;;;;;;;4.88;2.25;;;26.50;50.00;;;;;;5047755;28;20121;-81
2023/05/30 10:04:18;;;;;;;5.90;2.30;;;26.50;49.40;;;;;;5012872;28;20114;-81
2023/05/30 10:06:52;;;;;;;4.07;2.20;;;26.50;49.20;;;;;;5034110;28;20590;-83
2023/05/30 10:09:22;;;;;;;3.28;2.28;;;26.60;49.10;;;;;;5028864;28;20036;-80
2023/05/30 10:11:49;;;;;;;3.63;2.17;;;26.70;49.80;;;;;;5060460;28;20031;-81
2023/05/30 10:14:14;;;;;;;3.95;2.13;;;26.90;50.10;;;;;;5023111;28;20363;-80
2023/05/30 10:16:51;;;;;;;3.90;2.10;;;27.10;49.50;;;;;;5059051;28;20267;-82
2023/05/30 10:19:21;;;;;;;3.60;2.25;;;27.30;48.90;;;;;;5027543;28;20047;-83
2023/05/30 10:21:47;;;;;;;3.58;2.10;;;27.50;49.00;;;;;;5039179;28;20425;-81
2023/05/30 10:24:16;;;;;;;3.72;2.05;;;27.60;48.70;;;;;;5050882;28;20690;-82
2023/05/30 10:26:54;;;;;;;6.30;2.58;;;27.70;48.50;;;;;;5034667;28;20027;-81
2023/05/30 10:29:24;;;;;;;3.70;2.20;;;27.80;48.10;;;;;;5026604;28;20017;-81
2023/05/30 10:31:52;;;;;;;5.32;2.30;;;27.80;47.20;;;;;;5047010;28;20025;-81
2023/05/30 10:34:23;;;;;;;5.63;2.40;;;27.80;46.80;;;;;;5022068;28;20045;-83
2023/05/30 10:36:50;;;;;;;2.80;2.30;;;27.70;46.30;;;;;;5035375;28;20066;-81
2023/05/30 10:39:54;;;;;;;4.82;2.40;;;27.60;46.70;;;;;;5028167;28;20235;-82
2023/05/30 10:42:31;;;;;;;5.10;2.60;;;27.50;46.60;;;;;;5037496;28;20165;-80
2023/05/30 10:45:09;;;;;;;2.90;2.10;;;27.50;46.30;;;;;;5021014;28;20540;-82
2023/05/30 10:48:02;;;;;;;3.58;2.05;;;27.50;46.50;;;;;;5033761;28;20117;-83
2023/05/30 10:50:38;;;;;;;6.10;2.70;;;27.60;46.70;;;;;;5031985;28;20397;-81
2023/05/30 10:53:17;;;;;;;3.90;2.40;;;27.60;45.90;;;;;;5033346;28;20048;-81
2023/05/30 10:55:46;;;;;;;4.57;2.60;;;27.60;45.90;;;;;;5042027;28;20025;-81
2023/05/30 10:58:37;;;;;;;3.92;2.60;;;27.70;46.40;;;;;;5041875;28;20029;-83
2023/05/30 11:01:26;;;;;;;5.25;2.60;;;27.70;45.00;;;;;;5022112;28;20120;-80
2023/05/30 11:04:04;;;;;;;5.65;2.53;;;27.70;45.20;;;;;;5042030;28;20222;-79
2023/05/30 11:06:44;;;;;;;4.40;2.50;;;27.60;45.60;;;;;;5048524;27;20080;-81
2023/05/30 11:09:15;;;;;;;4.97;2.97;;;27.80;45.20;;;;;;5034067;28;20596;-81
2023/05/30 11:11:43;;;;;;;3.95;2.38;;;27.80;45.00;;;;;;5037773;28;20036;-81
2023/05/30 11:14:12;;;;;;;5.47;2.80;;;27.90;45.10;;;;;;5043600;28;20191;-81
2023/05/30 11:16:54;;;;;;;3.72;2.65;;;27.90;44.70;;;;;;5006389;28;20321;-83
2023/05/30 11:19:28;;;;;;;3.67;2.58;;;27.90;43.90;;;;;;5046558;28;20541;-82
2023/05/30 11:22:01;;;;;;;4.87;2.73;;;27.90;45.20;;;;;;5016809;28;20056;-83
2023/05/30 11:24:29;;;;;;;3.70;2.33;;;27.90;44.50;;;;;;5055280;27;20056;-82
2023/05/30 11:27:14;;;;;;;4.68;2.70;;;28.00;45.00;;;;;;5068434;28;20037;-80
2023/05/30 11:29:57;;;;;;;4.53;2.20;;;28.20;44.70;;;;;;5046215;28;20390;-83
2023/05/30 11:32:28;;;;;;;4.93;2.47;;;28.40;44.50;;;;;;5028892;28;20124;-82
2023/05/30 11:34:57;;;;;;;4.23;2.30;;;28.50;45.10;;;;;;5077862;27;20663;-82
2023/05/30 11:37:25;;;;;;;4.80;2.42;;;28.70;44.60;;;;;;5040789;27;20123;-80
2023/05/30 11:39:55;;;;;;;3.60;2.50;;;28.80;44.90;;;;;;5030335;28;20029;-81
2023/05/30 11:42:21;;;;;;;3.85;2.90;;;29.10;43.60;;;;;;5038662;28;20504;-81
2023/05/30 11:44:47;;;;;;;3.95;2.78;;;29.20;44.10;;;;;;5039411;28;20649;-81
2023/05/30 11:47:15;;;;;;;3.80;2.50;;;29.30;43.70;;;;;;5048745;28;20121;-81
2023/05/30 11:49:41;;;;;;;4.30;2.92;;;29.40;44.00;;;;;;5029687;28;20823;-82
2023/05/30 11:52:08;;;;;;;3.63;2.55;;;29.50;43.60;;;;;;5046074;27;20032;-80
2023/05/30 11:54:34;;;;;;;3.97;2.63;;;29.60;43.60;;;;;;5042116;28;20135;-79
2023/05/30 11:57:01;;;;;;;5.30;2.70;;;29.70;43.30;;;;;;5019655;28;20032;-82
2023/05/30 11:59:27;;;;;;;4.40;2.50;;;29.80;42.80;;;;;;5031611;28;20037;-81
2023/05/30 12:01:58;;;;;;;4.18;2.67;;;29.90;42.50;;;;;;5045762;28;20040;-81
2023/05/30 12:04:37;;;;;;;4.65;2.75;;;30.00;42.20;;;;;;5021135;28;20035;-81
2023/05/30 12:07:05;;;;;;;4.03;2.85;;;30.00;42.20;;;;;;5050465;28;20029;-82
2023/05/30 12:09:41;;;;;;;4.23;2.57;;;30.00;40.90;;;;;;5028862;28;20131;-80
2023/05/30 12:12:08;;;;;;;4.57;2.70;;;29.90;40.60;;;;;;5031435;28;20029;-80
2023/05/30 12:14:44;;;;;;;4.35;2.33;;;29.80;41.20;;;;;;5050349;28;20745;-82
2023/05/30 12:17:21;;;;;;;5.88;3.00;;;29.70;41.00;;;;;;5039479;28;20032;-80
2023/05/30 12:20:06;;;;;;;4.50;3.00;;;29.60;41.30;;;;;;5025458;28;20719;-80
2023/05/30 12:22:32;;;;;;;4.97;2.93;;;29.60;41.30;;;;;;5049465;28;20122;-82
2023/05/30 12:24:58;;;;;;;4.85;3.03;;;29.50;41.00;;;;;;5013096;28;20116;-80
2023/05/30 12:27:26;;;;;;;3.42;2.33;;;29.40;40.60;;;;;;5029844;28;20085;-80
2023/05/30 12:29:52;;;;;;;4.70;2.88;;;29.40;41.40;;;;;;5031251;28;20037;-82
2023/05/30 12:32:23;;;;;;;4.30;2.55;;;29.40;41.10;;;;;;5041592;28;20037;-81
2023/05/30 12:34:49;;;;;;;3.43;2.40;;;29.40;41.20;;;;;;5060351;28;20043;-81
2023/05/30 12:37:17;;;;;;;4.78;2.80;;;29.60;41.50;;;;;;5019854;28;20021;-81
2023/05/30 12:39:45;;;;;;;4.35;2.65;;;29.70;41.10;;;;;;5020201;28;20044;-83
2023/05/30 12:42:12;;;;;;;4.25;2.80;;;29.70;41.10;;;;;;5032448;28;20047;-83
2023/05/30 12:44:54;;;;;;;3.70;2.50;;;29.70;40.50;;;;;;5030085;28;20270;-80
2023/05/30 12:47:20;;;;;;;5.47;2.30;;;29.70;40.30;;;;;;5034424;28;20184;-79
2023/05/30 12:49:49;;;;;;;3.47;2.22;;;29.60;40.40;;;;;;5044393;28;20029;-81
2023/05/30 12:52:17;;;;;;;4.35;2.67;;;29.60;40.40;;;;;;5025424;28;20036;-81
2023/05/30 12:54:43;;;;;;;4.63;2.70;;;29.60;40.20;;;;;;5053738;28;20529;-82